Latest Weather Observations for Mount Gambier

IDS60801

Issued at 5:31 pm CST Thursday 28 May 2015 (issued every 30 minutes, with the page automatically refreshed every 10 minutes)

About weather observations | Map of weather stations | Latest weather observations for SA | Other Formats
Station Details ID: 026021 Name: MOUNT GAMBIER AERO Lat: -37.75 Lon: 140.77 Height: 63.0 m
Data from the previous 72 hours. | See also: Recent months at Mount Gambier
Date/Time
CST
Temp
°C
App
Temp
°C
Dew
Point
Rel
Hum
%
Delta-T
°C
Wind Press
QNH
hPa
Press
MSL
hPa
Rain
since 9 am
mm
Dir
 
Spd
km/h
Gust
km/h
Spd
kts
Gust
kts
28/05:30pm 11.4 6.7 7.9 79 1.7 W 22 30 12 16 1015.7 1015.7 8.0
28/05:00pm 11.9 8.5 9.3 84 1.3 WNW 17 24 9 13 1015.2 1015.2 8.0
28/04:30pm 11.9 8.7 9.9 87 1.0 W 17 24 9 13 1014.9 1014.9 8.0
28/04:26pm 12.0 8.5 10.1 88 1.0 W 19 24 10 13 1014.8 1014.8 8.0
28/04:13pm 12.3 8.6 10.0 86 1.2 WNW 20 30 11 16 1014.7 1014.7 8.0
28/04:00pm 12.5 8.4 10.0 85 1.3 WNW 22 35 12 19 1014.6 1014.6 8.0
28/03:30pm 12.4 8.5 10.7 89 0.9 WNW 22 32 12 17 1014.4 1014.4 8.0
28/03:00pm 12.6 8.8 11.1 91 0.8 W 22 30 12 16 1014.1 1014.1 8.0
28/02:30pm 12.2 7.3 11.3 94 0.5 W 28 37 15 20 1014.0 1014.0 7.8
28/02:00pm 12.3 7.8 11.5 95 0.4 WNW 26 35 14 19 1013.5 1013.5 7.4
28/01:30pm 13.2 7.7 11.7 91 0.8 NW 32 41 17 22 1013.2 1013.2 5.4
28/01:00pm 12.6 8.5 11.5 93 0.6 WNW 24 32 13 17 1013.5 1013.5 4.4
28/12:46pm 12.9 8.8 11.6 92 0.7 NW 24 32 13 17 1013.6 1013.6 2.8
28/12:30pm 13.0 7.2 10.9 87 1.1 NW 32 48 17 26 1013.3 1013.3 1.0
28/12:17pm 12.6 5.8 10.7 88 1.0 NW 37 56 20 30 1013.3 1013.3 1.0
28/12:00pm 13.6 6.5 10.9 84 1.4 NW 39 54 21 29 1013.6 1013.6 0.2
28/11:53am 14.3 7.2 10.9 80 1.8 NW 39 57 21 31 1013.7 1013.7 0.2
28/11:30am 15.4 9.4 10.7 73 2.5 NNW 33 48 18 26 1013.6 1013.6 0.0
28/11:00am 15.1 9.5 11.4 78 2.0 NNW 32 44 17 24 1014.0 1014.0 0.0
28/10:50am 15.5 9.2 11.2 75 2.3 NNW 35 54 19 29 1014.1 1014.1 0.0
28/10:30am 15.4 9.2 11.3 76 2.2 NNW 35 48 19 26 1014.2 1014.2 0.0
28/10:18am 15.3 10.4 11.4 77 2.1 NNW 28 50 15 27 1014.3 1014.3 0.0
28/10:00am 14.8 9.3 11.8 82 1.6 NNW 32 39 17 21 1014.4 1014.4 0.0
28/09:00am 13.3 9.6 11.4 88 1.0 N 22 33 12 18 1014.4 1014.4 7.6
28/08:30am 12.6 8.3 10.7 88 1.0 N 24 32 13 17 1014.6 1014.6 7.6
28/08:00am 11.8 8.1 10.0 89 0.9 N 20 30 11 16 1014.5 1014.5 7.6
28/07:30am 11.5 7.8 10.1 91 0.7 N 20 30 11 16 1014.4 1014.4 7.6
28/07:00am 11.7 8.0 10.3 91 0.7 N 20 32 11 17 1014.5 1014.5 7.6
28/06:30am 11.8 8.2 10.6 92 0.6 N 20 28 11 15 1014.3 1014.3 7.6
28/06:00am 12.2 8.9 10.9 92 0.7 NNW 19 28 10 15 1014.4 1014.4 7.6
28/05:30am 12.5 9.3 11.2 92 0.7 NNW 19 28 10 15 1014.3 1014.3 7.6
28/05:00am 12.1 9.6 11.1 94 0.5 NNW 15 26 8 14 1014.6 1014.6 7.6
28/04:30am 12.1 8.2 10.8 92 0.7 NNW 22 28 12 15 1014.5 1014.5 7.6
28/04:00am 12.3 7.2 10.6 89 0.9 NNW 28 41 15 22 1014.5 1014.5 7.6
28/03:54am 12.3 6.9 10.8 90 0.8 NNW 30 41 16 22 1014.5 1014.5 7.6
28/03:43am 12.2 8.0 11.1 93 0.6 NW 24 46 13 25 1014.8 1014.8 7.4
28/03:30am 12.2 9.9 11.6 96 0.3 NW 15 19 8 10 1015.1 1015.1 6.6
28/03:27am 12.2 10.2 11.6 96 0.3 NNW 13 19 7 10 1015.1 1015.1 6.6
28/03:00am 12.2 9.9 11.6 96 0.3 NNW 15 20 8 11 1014.8 1014.8 5.4
28/02:30am 12.4 10.1 11.8 96 0.3 N 15 19 8 10 1015.1 1015.1 5.4
28/02:00am 11.9 9.5 11.3 96 0.3 N 15 19 8 10 1014.8 1014.8 5.4
28/01:30am 11.6 9.8 10.8 95 0.4 N 11 15 6 8 1015.0 1015.0 5.4
28/01:00am 11.9 9.4 11.1 95 0.4 NNW 15 19 8 10 1015.2 1015.2 5.4
28/12:30am 12.5 10.2 11.9 96 0.3 NNW 15 19 8 10 1015.6 1015.6 5.4
28/12:18am 12.6 9.6 12.0 96 0.3 NNW 19 26 10 14 1015.8 1015.8 5.2
28/12:06am 12.7 9.7 11.8 94 0.5 NNW 19 24 10 13 1015.8 1015.8 5.2
28/12:00am 12.7 9.5 11.8 94 0.5 NW 20 30 11 16 1016.0 1016.0 4.6
 
Date/Time
CST
Temp
°C
App
Temp
°C
Dew
Point
Rel
Hum
%
Delta-T
°C
Wind Press
QNH
hPa
Press
MSL
hPa
Rain
since 9 am
mm
Dir
 
Spd
km/h
Gust
km/h
Spd
kts
Gust
kts
27/11:58pm 12.7 9.1 11.8 94 0.5 NW 22 30 12 16 1015.9 1015.9 4.6
27/11:41pm 12.9 7.7 11.6 92 0.7 NW 30 41 16 22 1016.1 1016.1 4.0
27/11:30pm 13.2 10.8 12.5 95 0.4 NW 17 22 9 12 1016.4 1016.4 2.4
27/11:25pm 13.3 10.9 12.8 97 0.3 NW 17 20 9 11 1016.3 1016.3 1.8
27/11:00pm 13.3 10.8 12.4 94 0.5 NNW 17 22 9 12 1016.3 1016.3 0.4
27/10:48pm 13.4 10.9 12.3 93 0.6 NNW 17 24 9 13 1016.3 1016.3 0.4
27/10:30pm 13.3 10.4 12.4 94 0.5 N 19 28 10 15 1016.2 1016.2 0.4
27/10:01pm 13.1 11.0 12.4 95 0.4 N 15 22 8 12 1016.2 1016.2 0.4
27/10:00pm 13.1 10.9 12.2 94 0.5 N 15 22 8 12 1016.3 1016.3 0.4
27/09:34pm 12.8 10.2 12.1 95 0.4 N 17 22 9 12 1016.3 1016.3 0.4
27/09:30pm 12.7 10.4 11.8 94 0.5 N 15 22 8 12 1016.4 1016.4 0.4
27/09:00pm 12.7 10.4 11.8 94 0.5 N 15 19 8 10 1016.5 1016.5 0.4
27/08:59pm 12.7 10.4 11.8 94 0.5 N 15 19 8 10 1016.5 1016.5 0.4
27/08:30pm 13.1 10.9 12.0 93 0.6 N 15 19 8 10 1016.6 1016.6 0.4
27/08:00pm 13.4 10.9 12.3 93 0.6 NNW 17 26 9 14 1016.6 1016.6 0.4
27/07:30pm 13.6 11.2 12.5 93 0.6 N 17 24 9 13 1016.6 1016.6 0.4
27/07:00pm 13.5 11.0 12.4 93 0.6 NNW 17 24 9 13 1016.5 1016.5 0.4
27/06:30pm 13.3 10.8 12.4 94 0.5 NNW 17 24 9 13 1016.3 1016.3 0.4
27/06:00pm 13.6 10.8 12.5 93 0.6 NNW 19 32 10 17 1016.4 1016.4 0.4
27/05:30pm 13.9 11.4 12.4 91 0.8 NNW 17 24 9 13 1016.3 1016.3 0.4
27/05:00pm 14.5 12.6 12.9 90 0.9 NNW 15 20 8 11 1016.1 1016.1 0.4
27/04:30pm 15.0 12.3 12.8 87 1.2 NNW 19 30 10 16 1016.0 1016.0 0.4
27/04:00pm 15.4 13.1 13.1 86 1.3 NNW 17 24 9 13 1016.0 1016.0 0.4
27/03:30pm 15.8 12.8 12.5 81 1.8 NNW 20 30 11 16 1016.0 1016.0 0.4
27/03:00pm 16.0 13.2 13.1 83 1.6 NW 20 33 11 18 1016.0 1016.0 0.4
27/02:30pm 16.0 13.6 13.9 87 1.2 NNW 19 26 10 14 1015.9 1015.9 0.4
27/02:00pm 15.1 12.5 13.7 91 0.8 NNW 20 30 11 16 1015.9 1015.9 0.4
27/01:45pm 15.1 12.5 13.9 92 0.7 NNW 20 28 11 15 1016.0 1016.0 0.4
27/01:30pm 14.9 11.4 13.5 91 0.8 NNW 24 35 13 19 1016.1 1016.1 0.4
27/01:00pm 16.5 13.1 12.5 77 2.2 NNW 22 33 12 18 1016.2 1016.2 0.0
27/12:30pm 16.9 13.1 12.4 75 2.5 NNW 24 37 13 20 1016.8 1016.8 0.0
27/12:00pm 16.8 13.3 12.3 75 2.5 NNW 22 32 12 17 1017.1 1017.1 0.0
27/11:45am 16.5 13.0 12.1 75 2.4 NNW 22 37 12 20 1017.3 1017.3 0.0
27/11:30am 16.3 12.4 12.1 76 2.3 NNW 24 35 13 19 1017.4 1017.4 0.0
27/11:00am 15.9 12.5 12.4 80 1.9 NNW 22 33 12 18 1017.8 1017.8 0.0
27/10:30am 15.1 11.5 12.0 82 1.7 NNW 22 32 12 17 1018.1 1018.1 0.0
27/10:00am 13.5 10.7 11.4 87 1.1 NNW 17 24 9 13 1018.2 1018.2 0.0
27/09:30am 12.6 9.2 10.7 88 1.0 NNW 19 26 10 14 1018.3 1018.3 0.0
27/09:00am 12.3 8.6 10.2 87 1.1 NNW 20 30 11 16 1018.2 1018.2 0.4
27/08:30am 11.7 8.4 9.5 86 1.1 N 17 26 9 14 1018.1 1018.1 0.4
27/08:00am 10.9 7.5 9.3 90 0.8 N 17 24 9 13 1018.0 1018.0 0.4
27/07:30am 10.5 7.5 9.1 91 0.7 N 15 19 8 10 1017.7 1017.7 0.4
27/07:00am 10.5 7.1 9.1 91 0.7 N 17 22 9 12 1017.4 1017.4 0.4
27/06:30am 10.8 7.4 9.2 90 0.8 N 17 22 9 12 1017.3 1017.3 0.4
27/06:00am 11.1 7.7 9.3 89 0.9 N 17 24 9 13 1017.1 1017.1 0.4
27/05:30am 11.0 7.6 9.2 89 0.9 N 17 24 9 13 1017.0 1017.0 0.4
27/05:00am 11.5 7.7 9.1 85 1.2 N 19 26 10 14 1017.4 1017.4 0.4
27/04:30am 11.4 8.0 9.2 86 1.1 N 17 19 9 10 1017.3 1017.3 0.4
27/04:00am 11.3 8.3 9.1 86 1.1 N 15 20 8 11 1017.3 1017.3 0.4
27/03:30am 11.5 8.5 9.1 85 1.2 N 15 19 8 10 1017.5 1017.5 0.4
27/03:00am 11.1 8.4 9.1 87 1.0 N 13 15 7 8 1017.9 1017.9 0.4
27/02:30am 10.6 8.3 9.0 90 0.8 N 11 11 6 6 1018.2 1018.2 0.4
27/02:00am 11.3 8.7 9.3 87 1.0 N 13 15 7 8 1018.4 1018.4 0.4
27/01:30am 12.0 9.1 9.6 85 1.2 NNE 15 15 8 8 1018.7 1018.7 0.4
27/01:00am 12.2 9.7 9.8 85 1.2 NNE 13 15 7 8 1018.7 1018.7 0.4
27/12:30am 12.3 9.6 10.2 87 1.1 NNE 15 17 8 9 1019.0 1019.0 0.4
27/12:00am 12.2 9.9 10.5 89 0.9 N 13 17 7 9 1019.6 1019.7 0.2
 
Date/Time
CST
Temp
°C
App
Temp
°C
Dew
Point
Rel
Hum
%
Delta-T
°C
Wind Press
QNH
hPa
Press
MSL
hPa
Rain
since 9 am
mm
Dir
 
Spd
km/h
Gust
km/h
Spd
kts
Gust
kts
26/11:30pm 12.4 9.4 10.5 88 1.0 N 17 19 9 10 1019.9 1020.0 0.2
26/11:00pm 13.4 9.9 8.8 74 2.3 N 17 22 9 12 1020.0 1020.1 0.0
26/10:30pm 13.1 9.6 8.7 74 2.2 NNE 17 22 9 12 1020.0 1020.1 0.0
26/10:00pm 13.0 10.7 9.0 77 2.0 NNE 11 13 6 7 1020.2 1020.3 0.0
26/09:30pm 13.2 10.2 9.3 77 2.0 NNE 15 19 8 10 1020.4 1020.5 0.0
26/09:00pm 12.8 10.2 9.2 79 1.8 NNE 13 13 7 7 1020.6 1020.7 0.0
26/08:30pm 13.0 10.7 9.0 77 2.0 NNE 11 13 6 7 1020.8 1020.9 0.0
26/08:00pm 13.0 10.8 9.2 78 1.9 NE 11 11 6 6 1020.8 1020.9 0.0
26/07:30pm 12.6 10.9 9.7 82 1.5 NE 9 9 5 5 1021.0 1021.1 0.0
26/07:00pm 12.3 10.5 9.5 83 1.4 NE 9 9 5 5 1021.1 1021.2 0.0
26/06:30pm 12.8 11.4 9.5 80 1.7 E 7 9 4 5 1021.2 1021.3 0.0
26/06:00pm 13.3 12.1 9.4 77 2.0 ENE 6 7 3 4 1021.2 1021.3 0.0
26/05:30pm 14.2 12.3 9.1 71 2.6 NE 9 9 5 5 1021.6 1021.7 0.0
26/05:00pm 14.7 12.8 9.0 68 2.9 NNE 9 11 5 6 1021.6 1021.7 0.0
26/04:30pm 15.0 13.6 9.6 70 2.8 NE 7 9 4 5 1021.6 1021.7 0.0
26/04:00pm 15.4 13.7 9.8 69 2.9 NNE 9 11 5 6 1021.7 1021.8 0.0
26/03:30pm 15.9 14.7 10.2 69 3.0 NNE 7 9 4 5 1021.9 1022.0 0.0
26/03:00pm 16.5 14.9 10.2 66 3.3 N 9 11 5 6 1022.1 1022.2 0.0
26/02:30pm 16.1 13.6 9.6 65 3.4 N 13 17 7 9 1022.3 1022.4 0.0
26/02:00pm 16.3 13.2 8.7 60 3.9 N 15 17 8 9 1022.6 1022.7 0.0
26/01:30pm 16.6 13.6 9.3 62 3.8 NNE 15 20 8 11 1023.1 1023.2 0.0
26/01:00pm 16.1 13.2 8.2 59 4.0 NNE 13 19 7 10 1023.6 1023.7 0.0
26/12:30pm 16.6 14.4 9.3 62 3.8 NE 11 15 6 8 1024.2 1024.3 0.0
26/12:00pm 16.0 13.4 9.4 65 3.4 NE 13 15 7 8 1024.6 1024.7 0.0
26/11:30am 15.5 12.5 9.3 66 3.2 NNE 15 19 8 10 1025.2 1025.3 0.0
26/11:00am 15.1 11.7 9.0 67 3.1 NNE 17 19 9 10 1026.1 1026.1 0.0
26/10:30am 13.3 9.6 8.0 70 2.6 NE 17 20 9 11 1026.5 1026.5 0.0
26/10:00am 10.9 7.4 7.3 78 1.7 NE 15 19 8 10 1026.9 1026.9 0.0
26/09:30am 9.8 6.8 6.1 78 1.7 NNE 11 11 6 6 1027.3 1027.3 0.0
26/09:00am 8.4 5.3 5.5 82 1.3 NE 11 13 6 7 1027.3 1027.3 0.0
26/08:30am 7.9 4.3 5.0 82 1.3 NNE 13 15 7 8 1027.4 1027.4 0.0
26/08:00am 6.5 3.6 4.4 86 0.9 NNE 9 13 5 7 1027.5 1027.5 0.0
26/07:30am 6.6 2.9 4.5 86 0.9 NNE 13 13 7 7 1027.5 1027.5 0.0
26/07:00am 6.8 3.5 4.7 86 0.9 NE 11 13 6 7 1027.3 1027.3 0.0
26/06:30am 6.6 3.3 4.3 85 1.0 NE 11 13 6 7 1027.3 1027.3 0.0
26/06:00am 6.4 3.4 4.3 86 0.9 NNE 9 11 5 6 1027.3 1027.3 0.0
26/05:30am 6.6 2.9 4.3 85 1.0 NNE 13 15 7 8 1027.3 1027.3 0.0
26/05:00am 7.6 3.6 4.9 83 1.2 NNE 15 15 8 8 1027.1 1027.1 0.0
26/04:30am 8.1 4.1 4.7 79 1.5 NE 15 17 8 9 1027.2 1027.2 0.0
26/04:00am 8.0 4.0 5.1 82 1.3 NNE 15 17 8 9 1027.1 1027.1 0.0
26/03:30am 6.8 2.7 4.5 85 1.0 NNE 15 15 8 8 1027.3 1027.3 0.0
26/03:00am 6.6 3.0 4.8 88 0.8 NNE 13 13 7 7 1027.6 1027.6 0.0
26/02:30am 6.6 3.0 5.2 91 0.6 NNE 13 13 7 7 1027.9 1027.9 0.0
26/02:00am 6.7 3.5 5.3 91 0.6 NNE 11 13 6 7 1027.9 1027.9 0.0
26/01:30am 6.0 2.7 4.8 92 0.5 NNE 11 11 6 6 1027.8 1027.8 0.0
26/01:00am 7.7 4.3 5.7 87 0.9 NNE 13 13 7 7 1028.2 1028.2 0.0
26/12:30am 7.5 3.7 5.7 88 0.8 NNE 15 15 8 8 1028.4 1028.4 0.0
26/12:00am 6.9 3.8 5.5 91 0.6 NNE 11 13 6 7 1028.6 1028.6 0.0
 
Date/Time
CST
Temp
°C
App
Temp
°C
Dew
Point
Rel
Hum
%
Delta-T
°C
Wind Press
QNH
hPa
Press
MSL
hPa
Rain
since 9 am
mm
Dir
 
Spd
km/h
Gust
km/h
Spd
kts
Gust
kts
25/11:30pm 5.7 2.9 5.0 95 0.3 NE 9 11 5 6 1028.6 1028.6 0.0
25/11:00pm 6.6 4.0 5.9 95 0.3 NNE 9 11 5 6 1028.6 1028.6 0.0
25/10:30pm 7.3 4.8 6.6 95 0.3 NE 9 11 5 6 1028.7 1028.7 0.0
25/10:00pm 6.9 4.3 6.0 94 0.4 NE 9 11 5 6 1028.7 1028.7 0.0
25/09:30pm 7.1 6.3 6.4 95 0.3 CALM 0 0 0 0 1028.6 1028.6 0.0
25/09:00pm 7.7 5.8 6.8 94 0.4 ENE 6 7 3 4 1028.6 1028.6 0.0
25/08:30pm 7.8 7.0 6.7 93 0.5 CALM 0 4 0 2 1028.8 1028.8 0.0
25/08:00pm 8.4 6.5 7.5 94 0.4 NNE 7 7 4 4 1028.9 1028.9 0.0
25/07:30pm 8.4 6.5 7.5 94 0.4 NNE 7 9 4 5 1028.9 1028.9 0.0
25/07:00pm 8.7 8.2 7.9 95 0.4 CALM 0 0 0 0 1028.7 1028.7 0.0
25/06:30pm 9.5 9.1 8.3 92 0.6 CALM 0 0 0 0 1028.5 1028.5 0.0
25/06:00pm 10.2 10.0 9.0 92 0.6 CALM 0 0 0 0 1028.4 1028.4 0.0

Other Formats:

Comma delimited format used in spreadsheet applications
http://www.bom.gov.au/fwo/IDS60801/IDS60801.94821.axf

JavaScript Object Notation format (JSON) in row-major order
http://www.bom.gov.au/fwo/IDS60801/IDS60801.94821.json